KIFP/IFP METAR and TAF weather

Enter ICAO airport designator
Station Type Date Time Source
KIFP METAR 2020/07/11 23:49 UTC NOAA

KIFP 112349Z 18008KT 20SM SCT120 48/07 A2975


Station Type Date Time Source
KIFP Decoded METAR 2020/07/11 23:49 UTC NOAA

Bullhead City, Laughlin/Bullhead International Airport, AZ, United States (KIFP) 35-09-27N 114-33-34W
Jul 11, 2020 - 07:49 PM EDT / 2020.07.11 2349 UTC
Wind: from the S (180 degrees) at 9 MPH (8 KT):0
Visibility: 20 mile(s):0
Sky conditions: partly cloudy
Temperature: 118 F (48 C)
Dew Point: 44 F (7 C)
Relative Humidity: 8%
Pressure (altimeter): 29.75 in. Hg (1007 hPa)
ob: KIFP 112349Z 18008KT 20SM SCT120 48/07 A2975
cycle: 0

Station Type Date Time Source
KIFP TAF 2020/07/11 18:36 UTC NOAA

TAF KIFP 111734Z 1118/1218 VRB05KT P6SM FEW150
FM112000 20009KT P6SM SCT140 BKN250
FM120200 VRB05KT P6SM SCT140 BKN250

Example: see airport list